CNH9 weather

Nanaimo (West Coast) Heliport
Nanaimo, British Columbia, Canada

Public forecast

Using degrees Celsius for public forecast. Weather courtesy of forecast.io.

METAR (pilot weather report)

Closest report is Nanaimo Airport, 9.1 nm (16.8 km) SSE. Retrieved 2019/07/20 04:00 UTC (12 minutes ago):

CYCD 200400Z 01007KT 25SM FEW210 17/10 A3011 RMK CI1 LAST STFD OBS/NEXT 201300Z SLP198 DENSITY ALT 200FT

TAF (pilot weather forecast)

Forecast is more than 12 hours old.

Closest forecast is Nanaimo Airport, 9.1 nm (16.8 km) SSE. Retrieved 2019/07/19 00:00 UTC (1 day ago):

TAF CYCD 192338Z 2000/2004 08007KT P6SM SCT040 TEMPO 2000/2004 BKN040 RMK NXT FCST WILL BE ISSUED AT 201445Z